createdAt,value
2022-12-03T00:01:29.291Z,-15.08
2022-12-03T00:04:00.569Z,-15.07
2022-12-03T00:06:34.382Z,-15.05
2022-12-03T00:09:04.118Z,-15.10
2022-12-03T00:11:34.739Z,-15.14
2022-12-03T00:14:03.840Z,-15.16
2022-12-03T00:16:32.861Z,-15.16
2022-12-03T00:19:01.801Z,-15.18
2022-12-03T00:21:31.578Z,-15.17
2022-12-03T00:24:00.606Z,-15.16
2022-12-03T00:26:29.689Z,-15.19
2022-12-03T00:29:00.080Z,-15.20
2022-12-03T00:31:29.156Z,-15.19
2022-12-03T00:33:58.130Z,-15.23
2022-12-03T00:36:27.204Z,-15.27
2022-12-03T00:38:56.358Z,-15.31
2022-12-03T00:41:25.453Z,-15.35
2022-12-03T00:43:57.524Z,-15.32
2022-12-03T00:46:28.422Z,-15.34
2022-12-03T00:48:57.375Z,-15.34
2022-12-03T00:51:26.609Z,-15.35
2022-12-03T00:53:55.669Z,-15.39
2022-12-03T00:56:25.085Z,-15.39
2022-12-03T00:58:54.216Z,-15.42
2022-12-03T01:01:23.310Z,-15.44
2022-12-03T01:03:53.711Z,-15.45
2022-12-03T01:06:22.857Z,-15.45
2022-12-03T01:08:51.825Z,-15.44
2022-12-03T01:11:38.720Z,-15.46
2022-12-03T01:14:09.529Z,-15.45
2022-12-03T01:16:39.293Z,-15.44
2022-12-03T01:19:15.884Z,-15.46
2022-12-03T01:21:46.305Z,-15.45
2022-12-03T01:24:15.905Z,-15.50
2022-12-03T01:26:44.961Z,-15.51
2022-12-03T01:29:14.105Z,-15.46
2022-12-03T01:32:00.221Z,-15.49
2022-12-03T01:34:30.634Z,-15.55
2022-12-03T01:37:00.105Z,-15.55
2022-12-03T01:39:29.209Z,-15.53
2022-12-03T01:41:59.316Z,-15.57
2022-12-03T01:44:31.294Z,-15.62
2022-12-03T01:47:02.718Z,-15.63
2022-12-03T01:49:40.559Z,-15.64
2022-12-03T01:52:13.483Z,-15.64
2022-12-03T01:54:45.733Z,-15.65
2022-12-03T01:57:22.665Z,-15.63
2022-12-03T01:59:53.313Z,-15.66
2022-12-03T02:02:25.301Z,-15.66
2022-12-03T02:04:56.529Z,-15.64
2022-12-03T02:07:30.477Z,-15.68
2022-12-03T02:10:02.283Z,-15.70
2022-12-03T02:12:41.100Z,-15.73
2022-12-03T02:15:11.562Z,-15.76
2022-12-03T02:17:40.954Z,-15.79
2022-12-03T02:20:13.736Z,-15.79
2022-12-03T02:22:49.852Z,-15.81
2022-12-03T02:25:24.376Z,-15.80
2022-12-03T02:27:55.249Z,-15.83
2022-12-03T02:30:26.490Z,-15.82
2022-12-03T02:32:56.146Z,-15.85
2022-12-03T02:35:27.621Z,-15.89
2022-12-03T02:38:00.384Z,-15.92
2022-12-03T02:40:35.041Z,-15.93
2022-12-03T02:43:04.918Z,-15.99
2022-12-03T02:45:37.823Z,-16.02
2022-12-03T02:48:10.064Z,-16.04
2022-12-03T02:50:42.453Z,-16.05
2022-12-03T02:53:15.488Z,-16.08
2022-12-03T02:55:46.696Z,-16.14
2022-12-03T02:58:17.156Z,-16.14
2022-12-03T03:00:47.283Z,-16.17
2022-12-03T03:03:18.174Z,-16.19
2022-12-03T03:05:48.217Z,-16.19
2022-12-03T03:08:19.190Z,-16.15
2022-12-03T03:10:50.570Z,-16.18
2022-12-03T03:13:21.271Z,-16.20
2022-12-03T03:15:50.310Z,-16.19
2022-12-03T03:18:19.969Z,-16.18
2022-12-03T03:20:49.082Z,-16.20
2022-12-03T03:23:20.327Z,-16.22
2022-12-03T03:25:55.428Z,-16.24
2022-12-03T03:28:25.577Z,-16.21
2022-12-03T03:30:55.097Z,-16.22
2022-12-03T03:33:24.378Z,-16.23
2022-12-03T03:35:54.444Z,-16.21
2022-12-03T03:38:25.135Z,-16.22
2022-12-03T03:40:55.697Z,-16.20
2022-12-03T03:43:25.638Z,-16.16
2022-12-03T03:45:55.811Z,-16.15
2022-12-03T03:48:25.114Z,-16.14
2022-12-03T03:50:54.736Z,-16.12
2022-12-03T03:53:25.844Z,-16.10
2022-12-03T03:55:56.287Z,-16.06
2022-12-03T03:58:25.344Z,-16.02
2022-12-03T04:00:54.815Z,-16.03
2022-12-03T04:03:23.956Z,-16.01
2022-12-03T04:05:52.924Z,-16.01
2022-12-03T04:08:22.010Z,-15.96
2022-12-03T04:11:08.327Z,-15.94
2022-12-03T04:13:38.700Z,-15.94
2022-12-03T04:16:08.222Z,-15.86
2022-12-03T04:18:46.239Z,-15.85
2022-12-03T04:21:34.471Z,-15.79
2022-12-03T04:24:03.746Z,-15.74
2022-12-03T04:26:49.895Z,-15.71
2022-12-03T04:29:22.060Z,-15.78
2022-12-03T04:32:04.872Z,-15.77
2022-12-03T04:34:51.281Z,-15.70
2022-12-03T04:37:20.606Z,-15.66
2022-12-03T04:39:49.683Z,-15.71
2022-12-03T04:42:18.729Z,-15.72
2022-12-03T04:44:49.186Z,-15.68
2022-12-03T04:47:20.022Z,-15.63
2022-12-03T04:49:50.592Z,-15.61
2022-12-03T04:52:20.980Z,-15.56
2022-12-03T04:54:50.179Z,-15.56
2022-12-03T04:57:19.235Z,-15.52
2022-12-03T04:59:49.675Z,-15.46
2022-12-03T05:02:18.952Z,-15.48
2022-12-03T05:04:48.012Z,-15.39
2022-12-03T05:07:17.080Z,-15.35
2022-12-03T05:09:46.082Z,-15.31
2022-12-03T05:12:15.067Z,-15.31
2022-12-03T05:14:44.021Z,-15.26
2022-12-03T05:17:14.653Z,-15.23
2022-12-03T05:20:00.689Z,-15.21
2022-12-03T05:22:30.293Z,-15.14
2022-12-03T05:24:59.331Z,-15.12
2022-12-03T05:27:32.225Z,-15.06
2022-12-03T05:30:01.186Z,-15.01
2022-12-03T05:32:32.445Z,-14.97
2022-12-03T05:35:01.888Z,-14.93
2022-12-03T05:37:35.406Z,-14.87
2022-12-03T05:40:05.156Z,-14.80
2022-12-03T05:42:51.370Z,-14.72
2022-12-03T05:45:20.921Z,-14.56
2022-12-03T05:47:53.522Z,-14.43
2022-12-03T05:50:36.436Z,-14.38
2022-12-03T05:53:25.827Z,-14.19
2022-12-03T05:55:55.675Z,-14.08
2022-12-03T05:58:24.965Z,-13.98
2022-12-03T06:00:54.001Z,-13.90
2022-12-03T06:03:24.637Z,-13.93
2022-12-03T06:05:54.333Z,-13.79
2022-12-03T06:08:23.353Z,-13.66
2022-12-03T06:10:53.081Z,-13.40
2022-12-03T06:13:22.111Z,-13.63
2022-12-03T06:15:51.297Z,-13.70
2022-12-03T06:18:20.536Z,-13.73
2022-12-03T06:20:51.416Z,-13.74
2022-12-03T06:23:20.426Z,-13.70
2022-12-03T06:25:49.611Z,-13.65
2022-12-03T06:28:18.760Z,-13.63
2022-12-03T06:30:47.906Z,-13.57
2022-12-03T06:33:17.025Z,-13.49
2022-12-03T06:35:46.392Z,-13.48
2022-12-03T06:38:17.098Z,-13.51
2022-12-03T06:40:46.271Z,-13.48
2022-12-03T06:43:15.591Z,-13.40
2022-12-03T06:45:47.898Z,-13.37
2022-12-03T06:48:17.170Z,-13.35
2022-12-03T06:50:46.303Z,-13.34
2022-12-03T06:53:16.591Z,-13.33
2022-12-03T06:55:45.770Z,-13.32
2022-12-03T06:58:14.820Z,-13.25
2022-12-03T07:00:43.789Z,-13.19
2022-12-03T07:03:12.960Z,-13.13
2022-12-03T07:05:42.091Z,-13.04
2022-12-03T07:08:11.161Z,-12.97
2022-12-03T07:10:41.678Z,-12.89
2022-12-03T07:13:10.877Z,-12.83
2022-12-03T07:15:39.986Z,-12.75
2022-12-03T07:18:09.037Z,-12.67
2022-12-03T07:20:38.500Z,-12.55
2022-12-03T07:23:07.909Z,-12.41
2022-12-03T07:25:37.089Z,-12.36
2022-12-03T07:28:07.581Z,-12.29
2022-12-03T07:30:36.534Z,-12.27
2022-12-03T07:33:05.514Z,-12.07
2022-12-03T07:35:34.716Z,-11.95
2022-12-03T07:38:03.680Z,-11.75
2022-12-03T07:40:32.645Z,-11.73
2022-12-03T07:43:01.773Z,-11.66
2022-12-03T07:45:32.260Z,-11.74
2022-12-03T07:48:01.419Z,-11.64
2022-12-03T07:50:31.153Z,-11.52
2022-12-03T07:53:00.238Z,-11.38
2022-12-03T07:55:29.299Z,-11.45
2022-12-03T07:57:58.498Z,-11.32
2022-12-03T08:00:27.884Z,-11.09
2022-12-03T08:02:58.177Z,-11.02
2022-12-03T08:05:29.610Z,-10.96
2022-12-03T08:07:58.710Z,-10.85
2022-12-03T08:10:28.194Z,-10.94
2022-12-03T08:12:59.550Z,-10.85
2022-12-03T08:15:38.555Z,-10.79
2022-12-03T08:18:16.103Z,-10.70
2022-12-03T08:20:46.715Z,-10.64
2022-12-03T08:23:17.959Z,-10.59
2022-12-03T08:25:48.107Z,-10.57
2022-12-03T08:28:20.086Z,-10.47
2022-12-03T08:31:18.238Z,-10.41
2022-12-03T08:33:50.191Z,-10.22
2022-12-03T08:36:23.195Z,-10.34
2022-12-03T08:38:54.674Z,-10.23
2022-12-03T08:41:38.041Z,-10.08
2022-12-03T08:44:19.678Z,-10.02
2022-12-03T08:46:51.562Z,-9.99
2022-12-03T08:49:23.796Z,-9.93
2022-12-03T08:51:57.517Z,-9.96
2022-12-03T08:54:27.285Z,-9.78
2022-12-03T08:56:56.509Z,-10.13
2022-12-03T08:59:29.606Z,-9.94
2022-12-03T09:02:00.599Z,-9.91
2022-12-03T09:04:37.445Z,-9.98
2022-12-03T09:07:06.658Z,-10.07
2022-12-03T09:09:35.813Z,-9.96
2022-12-03T09:12:06.114Z,-9.98
2022-12-03T09:14:35.160Z,-9.98
2022-12-03T09:17:04.378Z,-10.03
2022-12-03T09:19:34.807Z,-10.02
2022-12-03T09:22:03.783Z,-9.87
2022-12-03T09:24:32.836Z,-9.82
2022-12-03T09:27:01.906Z,-9.80
2022-12-03T09:29:30.985Z,-9.74
2022-12-03T09:32:00.225Z,-9.51
2022-12-03T09:34:29.530Z,-9.46
2022-12-03T09:36:59.944Z,-9.48
2022-12-03T09:39:28.972Z,-9.42
2022-12-03T09:41:58.258Z,-9.45
2022-12-03T09:44:29.997Z,-9.47
2022-12-03T09:47:00.667Z,-9.39
2022-12-03T09:49:32.043Z,-9.34
2022-12-03T09:52:05.179Z,-9.22
2022-12-03T09:54:37.716Z,-9.14
2022-12-03T09:57:12.399Z,-9.25
2022-12-03T09:59:41.397Z,-9.18
2022-12-03T10:02:17.402Z,-9.19
2022-12-03T10:04:46.910Z,-9.10
2022-12-03T10:07:18.298Z,-8.95
2022-12-03T10:09:47.547Z,-9.05
2022-12-03T10:12:22.389Z,-8.94
2022-12-03T10:14:52.517Z,-8.96
2022-12-03T10:17:22.146Z,-9.09
2022-12-03T10:19:51.466Z,-8.97
2022-12-03T10:22:22.162Z,-8.82
2022-12-03T10:25:07.006Z,-8.90
2022-12-03T10:27:36.065Z,-8.88
2022-12-03T10:30:15.220Z,-8.81
2022-12-03T10:32:46.374Z,-8.81
2022-12-03T10:35:17.420Z,-8.85
2022-12-03T10:38:06.411Z,-8.92
2022-12-03T10:40:37.162Z,-8.89
2022-12-03T10:43:17.733Z,-8.86
2022-12-03T10:45:48.068Z,-8.91
2022-12-03T10:48:19.689Z,-8.89
2022-12-03T10:50:53.639Z,-8.80
2022-12-03T10:53:25.678Z,-8.72
2022-12-03T10:55:59.492Z,-8.75
2022-12-03T10:58:30.634Z,-8.66
2022-12-03T11:01:03.524Z,-8.83
2022-12-03T11:03:36.823Z,-8.88
2022-12-03T11:06:06.629Z,-8.79
2022-12-03T11:08:38.476Z,-8.85
2022-12-03T11:11:09.641Z,-8.82
2022-12-03T11:13:48.449Z,-8.80
2022-12-03T11:16:51.718Z,-8.85
2022-12-03T11:19:46.848Z,-8.74
2022-12-03T11:22:28.337Z,-8.67
2022-12-03T11:25:50.672Z,-8.68
2022-12-03T11:28:55.049Z,-8.69
2022-12-03T11:31:39.674Z,-8.76
2022-12-03T11:34:50.165Z,-8.76
2022-12-03T11:37:29.595Z,-8.87
2022-12-03T11:40:26.546Z,-8.87
2022-12-03T11:42:55.698Z,-8.87
2022-12-03T11:45:32.278Z,-8.83
2022-12-03T11:48:06.420Z,-8.87
2022-12-03T11:50:40.328Z,-8.90
2022-12-03T11:53:18.695Z,-8.91
2022-12-03T11:55:52.434Z,-8.89
2022-12-03T11:58:27.169Z,-8.83
2022-12-03T12:01:00.410Z,-8.77
2022-12-03T12:03:33.483Z,-8.81
2022-12-03T12:06:05.129Z,-8.79
2022-12-03T12:08:36.106Z,-8.76
2022-12-03T12:11:16.829Z,-8.77
2022-12-03T12:13:57.932Z,-8.79
2022-12-03T12:16:50.682Z,-8.71
2022-12-03T12:19:52.729Z,-8.72
2022-12-03T12:22:40.868Z,-8.70
2022-12-03T12:25:38.703Z,-8.71
2022-12-03T12:28:08.650Z,-8.69
2022-12-03T12:30:40.196Z,-8.71
2022-12-03T12:33:19.251Z,-8.73
2022-12-03T12:35:48.367Z,-8.73
2022-12-03T12:38:19.535Z,-8.73
2022-12-03T12:40:51.013Z,-8.70
2022-12-03T12:43:28.368Z,-8.69
2022-12-03T12:46:18.828Z,-8.67
2022-12-03T12:48:55.224Z,-8.68
2022-12-03T12:51:27.739Z,-8.66
2022-12-03T12:53:59.229Z,-8.64
2022-12-03T12:56:31.289Z,-8.64
2022-12-03T12:59:12.471Z,-8.61
2022-12-03T13:01:42.957Z,-8.60
2022-12-03T13:04:15.335Z,-8.60
2022-12-03T13:06:44.926Z,-8.60
2022-12-03T13:09:17.254Z,-8.56
2022-12-03T13:11:47.580Z,-8.55
2022-12-03T13:14:20.465Z,-8.49
2022-12-03T13:16:50.708Z,-8.46
2022-12-03T13:19:24.472Z,-8.49
2022-12-03T13:21:55.056Z,-8.46
2022-12-03T13:24:35.660Z,-8.43
2022-12-03T13:27:23.009Z,-8.43
2022-12-03T13:29:56.297Z,-8.41
2022-12-03T13:32:31.089Z,-8.41
2022-12-03T13:35:06.609Z,-8.38
2022-12-03T13:37:35.709Z,-8.33
2022-12-03T13:40:14.448Z,-8.28
2022-12-03T13:42:45.252Z,-8.26
2022-12-03T13:45:31.990Z,-8.25
2022-12-03T13:48:03.461Z,-8.22
2022-12-03T13:50:37.643Z,-8.11
2022-12-03T13:53:16.581Z,-8.14
2022-12-03T13:55:47.252Z,-8.17
2022-12-03T13:58:16.342Z,-8.20
2022-12-03T14:00:45.439Z,-8.18
2022-12-03T14:03:14.694Z,-8.17
2022-12-03T14:05:45.150Z,-8.19
2022-12-03T14:08:14.354Z,-8.17
2022-12-03T14:10:43.522Z,-8.17
2022-12-03T14:13:12.679Z,-8.18
2022-12-03T14:15:41.822Z,-8.18
2022-12-03T14:18:12.144Z,-8.20
2022-12-03T14:20:41.164Z,-8.18
2022-12-03T14:23:11.609Z,-8.17
2022-12-03T14:25:40.614Z,-8.17
2022-12-03T14:28:09.919Z,-8.16
2022-12-03T14:30:38.951Z,-8.12
2022-12-03T14:33:08.077Z,-8.10
2022-12-03T14:35:37.980Z,-8.08
2022-12-03T14:38:06.998Z,-8.07
2022-12-03T14:40:37.528Z,-8.09
2022-12-03T14:43:06.551Z,-8.11
2022-12-03T14:45:35.563Z,-8.14
2022-12-03T14:48:06.275Z,-8.11
2022-12-03T14:50:35.545Z,-8.10
2022-12-03T14:53:04.723Z,-8.14
2022-12-03T14:55:34.188Z,-8.11
2022-12-03T14:58:04.894Z,-8.10
2022-12-03T15:00:33.977Z,-8.11
2022-12-03T15:03:03.163Z,-8.10
2022-12-03T15:05:32.451Z,-8.07
2022-12-03T15:08:01.645Z,-8.05
2022-12-03T15:10:30.978Z,-8.04
2022-12-03T15:13:00.162Z,-8.03
2022-12-03T15:15:30.783Z,-8.02
2022-12-03T15:18:00.225Z,-8.03
2022-12-03T15:20:30.072Z,-8.03
2022-12-03T15:22:59.507Z,-8.00
2022-12-03T15:25:28.855Z,-7.99
2022-12-03T15:27:58.033Z,-7.99
2022-12-03T15:30:27.709Z,-8.00
2022-12-03T15:32:58.217Z,-7.96
2022-12-03T15:35:27.275Z,-7.92
2022-12-03T15:38:00.044Z,-7.91
2022-12-03T15:40:30.063Z,-7.91
2022-12-03T15:42:59.286Z,-7.88
2022-12-03T15:45:28.420Z,-7.81
2022-12-03T15:47:59.163Z,-7.75
2022-12-03T15:50:28.689Z,-7.83
2022-12-03T15:52:58.504Z,-7.85
2022-12-03T15:55:28.127Z,-7.87
2022-12-03T15:58:01.425Z,-7.88
2022-12-03T16:00:30.623Z,-7.87
2022-12-03T16:03:01.069Z,-7.95
2022-12-03T16:05:30.235Z,-7.97
2022-12-03T16:07:59.323Z,-8.00
2022-12-03T16:10:28.452Z,-8.05
2022-12-03T16:13:01.794Z,-8.03
2022-12-03T16:15:31.909Z,-8.04
2022-12-03T16:18:03.063Z,-8.11
2022-12-03T16:20:32.445Z,-8.16
2022-12-03T16:23:01.512Z,-8.20
2022-12-03T16:25:30.719Z,-8.30
2022-12-03T16:28:00.048Z,-8.37
2022-12-03T16:30:29.419Z,-8.38
2022-12-03T16:32:59.162Z,-8.40
2022-12-03T16:35:29.865Z,-8.43
2022-12-03T16:37:59.248Z,-8.46
2022-12-03T16:40:29.029Z,-8.49
2022-12-03T16:42:59.180Z,-8.55
2022-12-03T16:45:51.610Z,-8.59
2022-12-03T16:48:20.911Z,-8.62
2022-12-03T16:50:51.524Z,-8.61
2022-12-03T16:53:23.519Z,-8.61
2022-12-03T16:55:52.790Z,-8.64
2022-12-03T16:58:23.500Z,-8.64
2022-12-03T17:00:54.461Z,-8.65
2022-12-03T17:03:28.966Z,-8.70
2022-12-03T17:06:04.436Z,-8.72
2022-12-03T17:08:33.699Z,-8.73
2022-12-03T17:11:05.316Z,-8.68
2022-12-03T17:13:34.525Z,-8.70
2022-12-03T17:16:13.068Z,-8.70
2022-12-03T17:18:42.653Z,-8.68
2022-12-03T17:21:13.379Z,-8.68
2022-12-03T17:23:42.496Z,-8.68
2022-12-03T17:26:11.707Z,-8.64
2022-12-03T17:28:40.961Z,-8.66
2022-12-03T17:31:10.453Z,-8.65
2022-12-03T17:33:40.438Z,-8.62
2022-12-03T17:36:10.219Z,-8.65
2022-12-03T17:38:40.818Z,-8.63
2022-12-03T17:41:09.937Z,-8.66
2022-12-03T17:43:39.538Z,-8.65
2022-12-03T17:46:08.959Z,-8.66
2022-12-03T17:48:38.182Z,-8.71
2022-12-03T17:51:07.664Z,-8.69
2022-12-03T17:53:36.735Z,-8.67
2022-12-03T17:56:07.875Z,-8.69
2022-12-03T17:58:37.148Z,-8.69
2022-12-03T18:01:08.719Z,-8.67
2022-12-03T18:03:37.981Z,-8.65
2022-12-03T18:06:07.786Z,-8.65
2022-12-03T18:08:36.945Z,-8.64
2022-12-03T18:11:07.599Z,-8.68
2022-12-03T18:13:36.610Z,-8.67
2022-12-03T18:16:06.455Z,-8.69
2022-12-03T18:18:35.628Z,-8.71
2022-12-03T18:21:04.931Z,-8.74
2022-12-03T18:23:34.089Z,-8.73
2022-12-03T18:26:03.958Z,-8.73
2022-12-03T18:28:34.549Z,-8.69
2022-12-03T18:31:03.764Z,-8.69
2022-12-03T18:33:32.790Z,-8.75
2022-12-03T18:36:02.002Z,-8.72
2022-12-03T18:38:34.419Z,-8.75
2022-12-03T18:41:03.620Z,-8.80
2022-12-03T18:43:34.550Z,-8.84
2022-12-03T18:46:05.574Z,-8.86
2022-12-03T18:48:34.867Z,-8.84
2022-12-03T18:51:03.894Z,-8.84
2022-12-03T18:53:33.034Z,-8.85
2022-12-03T18:56:02.113Z,-8.81
2022-12-03T18:58:31.396Z,-8.84
2022-12-03T19:01:02.905Z,-8.83
2022-12-03T19:03:32.570Z,-8.85
2022-12-03T19:06:01.866Z,-8.84
2022-12-03T19:08:30.914Z,-8.84
2022-12-03T19:11:01.574Z,-8.82
2022-12-03T19:13:30.723Z,-8.85
2022-12-03T19:16:05.220Z,-8.84
2022-12-03T19:18:34.537Z,-8.86
2022-12-03T19:21:08.518Z,-8.89
2022-12-03T19:23:37.989Z,-8.88
2022-12-03T19:26:08.891Z,-8.87
2022-12-03T19:28:38.142Z,-8.84
2022-12-03T19:31:12.226Z,-8.82
2022-12-03T19:33:42.488Z,-8.85
2022-12-03T19:36:23.266Z,-8.83
2022-12-03T19:38:56.969Z,-8.80
2022-12-03T19:41:28.157Z,-8.78
2022-12-03T19:43:58.192Z,-8.85
2022-12-03T19:46:30.505Z,-8.88
2022-12-03T19:48:59.711Z,-8.90
2022-12-03T19:51:36.362Z,-8.86
2022-12-03T19:54:06.903Z,-8.86
2022-12-03T19:56:36.206Z,-8.92
2022-12-03T19:59:05.536Z,-8.88
2022-12-03T20:01:40.369Z,-8.93
2022-12-03T20:04:09.854Z,-8.95
2022-12-03T20:06:39.620Z,-8.91
2022-12-03T20:09:12.069Z,-8.90
2022-12-03T20:11:44.588Z,-8.89
2022-12-03T20:14:15.855Z,-8.90
2022-12-03T20:16:46.836Z,-8.94
2022-12-03T20:19:18.951Z,-8.96
2022-12-03T20:21:48.099Z,-8.96
2022-12-03T20:24:19.387Z,-9.00
2022-12-03T20:26:48.460Z,-9.04
2022-12-03T20:29:18.067Z,-9.07
2022-12-03T20:31:48.548Z,-9.03
2022-12-03T20:34:17.731Z,-9.08
2022-12-03T20:36:46.925Z,-9.06
2022-12-03T20:39:15.919Z,-9.09
2022-12-03T20:41:44.866Z,-9.11
2022-12-03T20:44:14.071Z,-9.11
2022-12-03T20:46:43.084Z,-9.13
2022-12-03T20:49:13.595Z,-9.19
2022-12-03T20:51:43.083Z,-9.18
2022-12-03T20:54:12.095Z,-9.20
2022-12-03T20:56:42.158Z,-9.23
2022-12-03T20:59:13.490Z,-9.27
2022-12-03T21:01:43.402Z,-9.34
2022-12-03T21:04:16.166Z,-9.28
2022-12-03T21:06:46.330Z,-9.30
2022-12-03T21:09:15.342Z,-9.36
2022-12-03T21:11:45.411Z,-9.39
2022-12-03T21:14:14.375Z,-9.39
2022-12-03T21:19:39.549Z,-9.50
2022-12-03T21:22:08.934Z,-9.53
2022-12-03T21:24:37.852Z,-9.55
2022-12-03T21:27:06.850Z,-9.60
2022-12-03T21:29:35.793Z,-9.64
2022-12-03T21:32:04.947Z,-9.69
2022-12-03T21:34:36.413Z,-9.73
2022-12-03T21:37:07.315Z,-9.72
2022-12-03T21:39:36.459Z,-9.74
2022-12-03T21:42:22.372Z,-9.79
2022-12-03T21:44:54.835Z,-9.88
2022-12-03T21:47:23.919Z,-9.95
2022-12-03T21:49:53.297Z,-10.01
2022-12-03T21:52:24.002Z,-10.02
2022-12-03T21:54:53.815Z,-10.08
2022-12-03T21:57:23.021Z,-10.16
2022-12-03T21:59:51.993Z,-10.28
2022-12-03T22:02:21.123Z,-10.41
2022-12-03T22:04:51.935Z,-10.52
2022-12-03T22:07:21.219Z,-10.65
2022-12-03T22:09:51.769Z,-10.74
2022-12-03T22:12:20.893Z,-10.81
2022-12-03T22:14:49.907Z,-10.90
2022-12-03T22:17:18.848Z,-11.00
2022-12-03T22:19:47.980Z,-11.06
2022-12-03T22:22:17.031Z,-11.15
2022-12-03T22:24:46.914Z,-11.23
2022-12-03T22:27:17.336Z,-11.23
2022-12-03T22:29:46.337Z,-11.26
2022-12-03T22:32:15.665Z,-11.31
2022-12-03T22:34:45.037Z,-11.35
2022-12-03T22:37:14.061Z,-11.38
2022-12-03T22:39:43.055Z,-11.41
2022-12-03T22:42:12.193Z,-11.46
2022-12-03T22:44:42.654Z,-11.47
2022-12-03T22:47:11.601Z,-11.52
2022-12-03T22:49:40.569Z,-11.55
2022-12-03T22:52:10.039Z,-11.60
2022-12-03T22:54:38.995Z,-11.64
2022-12-03T22:57:07.942Z,-11.66
2022-12-03T22:59:36.912Z,-11.70
2022-12-03T23:02:07.302Z,-11.73
2022-12-03T23:04:36.386Z,-11.75
2022-12-03T23:07:07.068Z,-11.81
2022-12-03T23:09:36.048Z,-11.85
2022-12-03T23:12:05.247Z,-11.85
2022-12-03T23:14:34.270Z,-11.83
2022-12-03T23:17:03.213Z,-11.86
2022-12-03T23:19:33.570Z,-11.90
2022-12-03T23:22:02.537Z,-11.94
2022-12-03T23:24:31.884Z,-11.91
2022-12-03T23:27:00.925Z,-11.92
2022-12-03T23:29:29.885Z,-11.99
2022-12-03T23:31:58.955Z,-12.03
2022-12-03T23:34:28.285Z,-12.08
2022-12-03T23:36:58.921Z,-12.12
2022-12-03T23:39:27.957Z,-12.14
2022-12-03T23:41:56.889Z,-12.17
2022-12-03T23:44:25.840Z,-12.19
2022-12-03T23:46:54.853Z,-12.20
2022-12-03T23:49:23.782Z,-12.20
2022-12-03T23:51:52.769Z,-12.20
2022-12-03T23:54:23.327Z,-12.21
2022-12-03T23:56:52.301Z,-12.23
2022-12-03T23:59:21.429Z,-12.27
